Terminal Aerodrome Forecast
Issued by NWS Portland, OR

Home | Current Version | Previous Version | Text Only | Print | Product List | Glossary On
Versions: 1 2 3 4 5 6 7 8 9 10 11 12 13 14 15 16 17 18 19 20 21 22 23 24
000
FTUS46 KPQR 282338
TAFHIO
TAF
KHIO 282338Z 2900/2924 VRB04KT P6SM FEW040
     FM290900 00000KT P6SM BKN015
     FM291200 00000KT P6SM OVC012
     FM292000 33006KT P6SM SCT012 BKN025=

USA.gov is the U.S. government's official web portal to all federal, state and local government web resources and services.